Offutt Lake, Washington
Current Conditions -  °F | °C
As of 5:24 AM on Friday 28 Nov 2014 (Local Time) from KOLM Reporting Station
Overcast Overcast  
Wind Chill: 52°   Ceiling: 1900
Heat Index: 52°   Visibility: 10mi
Dew Point: 50°   Wind: 13mph
Humidity: 93%   Direction: 190°S
Pressure: 29.6"   Gusts: NA
Location:  46.9755°N, 122.872°W
Report Text: KOLM 281324Z AUTO 19011KT 10SM FEW009 BKN019 OVC090 11/10 A2960 RMK AO2 T01110100
Loading
Personal Weather Stations






























Interactive Weather Map New forecast layout! Learn more

10-Day Weather Forecast

Advertisements
Track Severe Weather on mobile